sensor_id;sensor_type;location;lat;lon;timestamp;pressure;altitude;pressure_sealevel;temperature;humidity
77235;BME280;66253;50.526;14.974;2023-06-26T00:01:03;99215.14;;;17.56;66.84
77235;BME280;66253;50.526;14.974;2023-06-26T00:03:32;99219.44;;;17.54;66.51
77235;BME280;66253;50.526;14.974;2023-06-26T00:06:00;99221.33;;;17.52;66.49
77235;BME280;66253;50.526;14.974;2023-06-26T00:08:28;99219.30;;;17.50;66.56
77235;BME280;66253;50.526;14.974;2023-06-26T00:10:57;99217.82;;;17.47;66.67
77235;BME280;66253;50.526;14.974;2023-06-26T00:13:25;99216.34;;;17.46;66.86
77235;BME280;66253;50.526;14.974;2023-06-26T00:15:53;99217.00;;;17.46;67.07
77235;BME280;66253;50.526;14.974;2023-06-26T00:18:21;99216.29;;;17.44;66.91
77235;BME280;66253;50.526;14.974;2023-06-26T00:20:50;99210.04;;;17.39;66.80
77235;BME280;66253;50.526;14.974;2023-06-26T00:23:18;99210.18;;;17.29;66.75
77235;BME280;66253;50.526;14.974;2023-06-26T00:25:47;99212.90;;;17.23;66.80
77235;BME280;66253;50.526;14.974;2023-06-26T00:28:15;99209.56;;;17.20;66.87
77235;BME280;66253;50.526;14.974;2023-06-26T00:34:04;99214.16;;;17.20;66.97
77235;BME280;66253;50.526;14.974;2023-06-26T00:36:33;99211.70;;;17.17;67.01
77235;BME280;66253;50.526;14.974;2023-06-26T00:39:01;99210.23;;;17.16;67.30
77235;BME280;66253;50.526;14.974;2023-06-26T00:41:29;99212.73;;;17.17;67.27
77235;BME280;66253;50.526;14.974;2023-06-26T00:43:57;99212.48;;;17.13;67.22
77235;BME280;66253;50.526;14.974;2023-06-26T00:46:26;99208.08;;;17.06;66.97
77235;BME280;66253;50.526;14.974;2023-06-26T00:48:55;99208.95;;;17.04;67.08
77235;BME280;66253;50.526;14.974;2023-06-26T00:51:26;99207.15;;;17.01;66.94
77235;BME280;66253;50.526;14.974;2023-06-26T00:53:55;99209.09;;;16.96;67.17
77235;BME280;66253;50.526;14.974;2023-06-26T00:56:24;99208.55;;;16.92;67.15
77235;BME280;66253;50.526;14.974;2023-06-26T00:58:52;99204.86;;;16.87;67.00
77235;BME280;66253;50.526;14.974;2023-06-26T01:01:21;99205.77;;;16.84;67.12
77235;BME280;66253;50.526;14.974;2023-06-26T01:03:49;99203.92;;;16.81;67.24
77235;BME280;66253;50.526;14.974;2023-06-26T01:06:20;99202.06;;;16.74;67.30
77235;BME280;66253;50.526;14.974;2023-06-26T01:08:49;99202.54;;;16.71;67.45
77235;BME280;66253;50.526;14.974;2023-06-26T01:11:17;99198.89;;;16.64;67.42
77235;BME280;66253;50.526;14.974;2023-06-26T01:13:46;99198.84;;;16.58;67.40
77235;BME280;66253;50.526;14.974;2023-06-26T01:16:16;99194.20;;;16.52;67.50
77235;BME280;66253;50.526;14.974;2023-06-26T01:18:46;99194.05;;;16.50;67.59
77235;BME280;66253;50.526;14.974;2023-06-26T01:21:14;99189.87;;;16.48;67.64
77235;BME280;66253;50.526;14.974;2023-06-26T01:23:54;99187.52;;;16.47;67.71
77235;BME280;66253;50.526;14.974;2023-06-26T01:26:28;99183.66;;;16.46;67.74
77235;BME280;66253;50.526;14.974;2023-06-26T01:28:58;99188.20;;;16.43;67.81
77235;BME280;66253;50.526;14.974;2023-06-26T01:31:28;99191.02;;;16.40;67.91
77235;BME280;66253;50.526;14.974;2023-06-26T01:33:57;99187.48;;;16.39;67.97
77235;BME280;66253;50.526;14.974;2023-06-26T01:36:25;99180.55;;;16.40;67.95
77235;BME280;66253;50.526;14.974;2023-06-26T01:38:53;99178.60;;;16.40;67.89
77235;BME280;66253;50.526;14.974;2023-06-26T01:41:22;99177.20;;;16.43;68.15
77235;BME280;66253;50.526;14.974;2023-06-26T01:44:01;99175.11;;;16.43;68.13
77235;BME280;66253;50.526;14.974;2023-06-26T01:46:38;99176.02;;;16.42;68.17
77235;BME280;66253;50.526;14.974;2023-06-26T01:49:07;99175.16;;;16.40;68.33
77235;BME280;66253;50.526;14.974;2023-06-26T01:51:41;99176.15;;;16.38;68.13
77235;BME280;66253;50.526;14.974;2023-06-26T01:54:13;99175.09;;;16.37;68.04
77235;BME280;66253;50.526;14.974;2023-06-26T01:56:47;99174.27;;;16.36;68.19
77235;BME280;66253;50.526;14.974;2023-06-26T01:59:19;99173.05;;;16.30;68.15
77235;BME280;66253;50.526;14.974;2023-06-26T02:01:49;99173.17;;;16.13;68.08
77235;BME280;66253;50.526;14.974;2023-06-26T02:04:17;99173.15;;;16.01;68.29
77235;BME280;66253;50.526;14.974;2023-06-26T02:06:45;99167.16;;;15.97;68.55
77235;BME280;66253;50.526;14.974;2023-06-26T02:09:14;99167.52;;;15.97;68.54
77235;BME280;66253;50.526;14.974;2023-06-26T02:11:42;99167.58;;;15.95;68.66
77235;BME280;66253;50.526;14.974;2023-06-26T02:14:10;99168.77;;;15.89;68.73
77235;BME280;66253;50.526;14.974;2023-06-26T02:16:38;99175.27;;;15.85;68.81
77235;BME280;66253;50.526;14.974;2023-06-26T02:19:07;99173.65;;;15.83;68.99
77235;BME280;66253;50.526;14.974;2023-06-26T02:21:35;99176.73;;;15.84;69.04
77235;BME280;66253;50.526;14.974;2023-06-26T02:24:03;99173.62;;;15.79;69.00
77235;BME280;66253;50.526;14.974;2023-06-26T02:26:32;99174.73;;;15.78;69.05
77235;BME280;66253;50.526;14.974;2023-06-26T02:29:00;99169.73;;;15.78;69.05
77235;BME280;66253;50.526;14.974;2023-06-26T02:31:28;99169.64;;;15.75;69.32
77235;BME280;66253;50.526;14.974;2023-06-26T02:33:56;99168.80;;;15.68;69.41
77235;BME280;66253;50.526;14.974;2023-06-26T02:36:25;99170.39;;;15.65;69.76
77235;BME280;66253;50.526;14.974;2023-06-26T02:38:53;99167.58;;;15.66;69.91
77235;BME280;66253;50.526;14.974;2023-06-26T02:41:21;99169.42;;;15.67;70.17
77235;BME280;66253;50.526;14.974;2023-06-26T02:43:50;99173.27;;;15.68;70.20
77235;BME280;66253;50.526;14.974;2023-06-26T02:46:19;99177.52;;;15.69;70.26
77235;BME280;66253;50.526;14.974;2023-06-26T02:48:47;99177.30;;;15.70;70.30
77235;BME280;66253;50.526;14.974;2023-06-26T02:51:15;99181.30;;;15.73;70.22
77235;BME280;66253;50.526;14.974;2023-06-26T02:53:43;99181.63;;;15.78;70.21
77235;BME280;66253;50.526;14.974;2023-06-26T02:56:12;99177.05;;;15.82;70.12
77235;BME280;66253;50.526;14.974;2023-06-26T02:58:40;99171.00;;;15.84;70.16
77235;BME280;66253;50.526;14.974;2023-06-26T03:01:08;99169.80;;;15.88;70.21
77235;BME280;66253;50.526;14.974;2023-06-26T03:03:36;99163.17;;;15.92;70.11
77235;BME280;66253;50.526;14.974;2023-06-26T03:06:05;99162.10;;;15.94;70.20
77235;BME280;66253;50.526;14.974;2023-06-26T03:08:33;99161.21;;;15.95;70.08
77235;BME280;66253;50.526;14.974;2023-06-26T03:11:01;99165.02;;;15.94;69.92
77235;BME280;66253;50.526;14.974;2023-06-26T03:13:30;99166.13;;;15.96;70.14
77235;BME280;66253;50.526;14.974;2023-06-26T03:15:58;99162.95;;;15.97;70.03
77235;BME280;66253;50.526;14.974;2023-06-26T03:18:26;99158.99;;;15.96;69.83
77235;BME280;66253;50.526;14.974;2023-06-26T03:20:55;99160.44;;;15.96;69.87
77235;BME280;66253;50.526;14.974;2023-06-26T03:23:23;99158.24;;;15.93;69.64
77235;BME280;66253;50.526;14.974;2023-06-26T03:25:52;99156.52;;;15.91;69.73
77235;BME280;66253;50.526;14.974;2023-06-26T03:28:21;99157.36;;;15.91;69.86
77235;BME280;66253;50.526;14.974;2023-06-26T03:30:49;99156.69;;;15.91;69.84
77235;BME280;66253;50.526;14.974;2023-06-26T03:33:18;99154.48;;;15.90;69.66
77235;BME280;66253;50.526;14.974;2023-06-26T03:35:46;99154.08;;;15.91;69.78
77235;BME280;66253;50.526;14.974;2023-06-26T03:38:14;99155.46;;;15.93;69.85
77235;BME280;66253;50.526;14.974;2023-06-26T03:40:43;99153.90;;;15.95;69.83
77235;BME280;66253;50.526;14.974;2023-06-26T03:43:11;99152.09;;;15.99;69.92
77235;BME280;66253;50.526;14.974;2023-06-26T03:45:39;99147.27;;;16.01;69.94
77235;BME280;66253;50.526;14.974;2023-06-26T03:48:07;99147.45;;;15.99;69.83
77235;BME280;66253;50.526;14.974;2023-06-26T03:50:36;99148.16;;;15.96;69.80
77235;BME280;66253;50.526;14.974;2023-06-26T03:53:04;99152.91;;;15.95;69.79
77235;BME280;66253;50.526;14.974;2023-06-26T03:55:32;99155.00;;;15.97;69.77
77235;BME280;66253;50.526;14.974;2023-06-26T03:58:01;99154.69;;;16.01;69.93
77235;BME280;66253;50.526;14.974;2023-06-26T04:00:29;99154.55;;;16.03;69.90
77235;BME280;66253;50.526;14.974;2023-06-26T04:02:57;99158.55;;;16.04;69.80
77235;BME280;66253;50.526;14.974;2023-06-26T04:05:25;99154.83;;;16.04;70.16
77235;BME280;66253;50.526;14.974;2023-06-26T04:07:54;99152.80;;;16.05;70.06
77235;BME280;66253;50.526;14.974;2023-06-26T04:10:24;99152.81;;;16.07;70.13
77235;BME280;66253;50.526;14.974;2023-06-26T04:12:52;99153.30;;;16.07;70.08
77235;BME280;66253;50.526;14.974;2023-06-26T04:15:21;99157.67;;;16.09;70.11
77235;BME280;66253;50.526;14.974;2023-06-26T04:17:49;99157.47;;;16.09;70.07
77235;BME280;66253;50.526;14.974;2023-06-26T04:20:17;99157.30;;;16.09;70.29
77235;BME280;66253;50.526;14.974;2023-06-26T04:22:46;99155.07;;;16.07;70.03
77235;BME280;66253;50.526;14.974;2023-06-26T04:25:14;99159.35;;;16.11;70.30
77235;BME280;66253;50.526;14.974;2023-06-26T04:27:42;99154.61;;;16.21;70.53
77235;BME280;66253;50.526;14.974;2023-06-26T04:30:13;99154.41;;;16.35;70.43
77235;BME280;66253;50.526;14.974;2023-06-26T04:32:41;99150.55;;;16.46;70.55
77235;BME280;66253;50.526;14.974;2023-06-26T04:35:09;99155.06;;;16.60;70.30
77235;BME280;66253;50.526;14.974;2023-06-26T04:37:38;99155.66;;;16.77;70.15
77235;BME280;66253;50.526;14.974;2023-06-26T04:40:07;99154.96;;;16.91;70.00
77235;BME280;66253;50.526;14.974;2023-06-26T04:42:36;99147.61;;;17.07;69.81
77235;BME280;66253;50.526;14.974;2023-06-26T04:45:05;99146.16;;;17.22;69.62
77235;BME280;66253;50.526;14.974;2023-06-26T04:47:33;99149.30;;;17.40;69.45
77235;BME280;66253;50.526;14.974;2023-06-26T04:50:02;99145.40;;;17.57;69.68
77235;BME280;66253;50.526;14.974;2023-06-26T04:52:29;99151.73;;;17.74;69.41
77235;BME280;66253;50.526;14.974;2023-06-26T04:54:58;99148.10;;;17.90;69.25
77235;BME280;66253;50.526;14.974;2023-06-26T04:57:26;99146.52;;;18.07;69.09
77235;BME280;66253;50.526;14.974;2023-06-26T04:59:54;99147.06;;;18.22;68.68
77235;BME280;66253;50.526;14.974;2023-06-26T05:02:22;99146.48;;;18.32;68.72
77235;BME280;66253;50.526;14.974;2023-06-26T05:04:51;99148.22;;;18.40;68.29
77235;BME280;66253;50.526;14.974;2023-06-26T05:07:19;99150.29;;;18.44;68.15
77235;BME280;66253;50.526;14.974;2023-06-26T05:09:47;99156.93;;;18.43;67.81
77235;BME280;66253;50.526;14.974;2023-06-26T05:12:16;99159.05;;;18.40;67.94
77235;BME280;66253;50.526;14.974;2023-06-26T05:14:44;99155.64;;;18.40;67.73
77235;BME280;66253;50.526;14.974;2023-06-26T05:17:13;99154.58;;;18.38;67.81
77235;BME280;66253;50.526;14.974;2023-06-26T05:19:41;99157.84;;;18.43;67.92
77235;BME280;66253;50.526;14.974;2023-06-26T05:22:10;99156.54;;;18.47;67.92
77235;BME280;66253;50.526;14.974;2023-06-26T05:24:41;99151.95;;;18.52;67.93
77235;BME280;66253;50.526;14.974;2023-06-26T05:27:12;99149.36;;;18.60;67.76
77235;BME280;66253;50.526;14.974;2023-06-26T05:29:41;99150.05;;;18.70;67.38
77235;BME280;66253;50.526;14.974;2023-06-26T05:32:11;99149.27;;;18.82;67.38
77235;BME280;66253;50.526;14.974;2023-06-26T05:34:41;99149.49;;;18.99;66.78
77235;BME280;66253;50.526;14.974;2023-06-26T05:37:10;99147.91;;;19.18;66.65
77235;BME280;66253;50.526;14.974;2023-06-26T05:39:43;99145.84;;;19.36;65.94
77235;BME280;66253;50.526;14.974;2023-06-26T05:42:14;99142.48;;;19.55;65.74
77235;BME280;66253;50.526;14.974;2023-06-26T05:44:43;99143.77;;;19.71;65.23
77235;BME280;66253;50.526;14.974;2023-06-26T05:47:11;99141.29;;;19.83;65.31
77235;BME280;66253;50.526;14.974;2023-06-26T05:49:39;99138.02;;;19.93;65.04
77235;BME280;66253;50.526;14.974;2023-06-26T05:52:10;99142.88;;;20.06;65.07
77235;BME280;66253;50.526;14.974;2023-06-26T05:54:39;99137.41;;;20.19;64.82
77235;BME280;66253;50.526;14.974;2023-06-26T05:57:09;99134.73;;;20.32;64.53
77235;BME280;66253;50.526;14.974;2023-06-26T05:59:36;99140.14;;;20.45;64.21
77235;BME280;66253;50.526;14.974;2023-06-26T06:02:05;99132.23;;;20.55;63.90
77235;BME280;66253;50.526;14.974;2023-06-26T06:04:33;99131.23;;;20.61;63.98
77235;BME280;66253;50.526;14.974;2023-06-26T06:07:01;99131.17;;;20.69;64.22
77235;BME280;66253;50.526;14.974;2023-06-26T06:09:29;99128.83;;;20.75;63.95
77235;BME280;66253;50.526;14.974;2023-06-26T06:11:58;99129.45;;;20.86;64.14
77235;BME280;66253;50.526;14.974;2023-06-26T06:14:26;99125.45;;;20.97;63.84
77235;BME280;66253;50.526;14.974;2023-06-26T06:16:54;99125.71;;;21.08;63.69
77235;BME280;66253;50.526;14.974;2023-06-26T06:19:23;99122.14;;;21.19;63.21
77235;BME280;66253;50.526;14.974;2023-06-26T06:21:51;99119.16;;;21.29;63.09
77235;BME280;66253;50.526;14.974;2023-06-26T06:24:19;99117.09;;;21.42;62.83
77235;BME280;66253;50.526;14.974;2023-06-26T06:26:47;99115.98;;;21.54;62.47
77235;BME280;66253;50.526;14.974;2023-06-26T06:29:16;99116.20;;;21.67;62.09
77235;BME280;66253;50.526;14.974;2023-06-26T06:31:44;99111.84;;;21.82;61.55
77235;BME280;66253;50.526;14.974;2023-06-26T06:34:12;99110.33;;;21.98;61.24
77235;BME280;66253;50.526;14.974;2023-06-26T06:36:40;99109.85;;;22.16;60.81
77235;BME280;66253;50.526;14.974;2023-06-26T06:39:09;99109.27;;;22.32;59.70
77235;BME280;66253;50.526;14.974;2023-06-26T06:41:37;99105.48;;;22.41;59.75
77235;BME280;66253;50.526;14.974;2023-06-26T06:44:06;99105.20;;;22.55;59.77
77235;BME280;66253;50.526;14.974;2023-06-26T06:46:35;99105.84;;;22.70;59.59
77235;BME280;66253;50.526;14.974;2023-06-26T06:49:03;99104.49;;;22.86;59.19
77235;BME280;66253;50.526;14.974;2023-06-26T06:51:31;99111.63;;;23.00;58.71
77235;BME280;66253;50.526;14.974;2023-06-26T06:53:59;99105.67;;;23.14;57.84
77235;BME280;66253;50.526;14.974;2023-06-26T06:56:28;99105.29;;;23.21;56.19
77235;BME280;66253;50.526;14.974;2023-06-26T06:58:56;99103.91;;;23.33;56.40
77235;BME280;66253;50.526;14.974;2023-06-26T07:01:24;99096.52;;;23.47;55.95
77235;BME280;66253;50.526;14.974;2023-06-26T07:03:52;99093.69;;;23.58;55.44
77235;BME280;66253;50.526;14.974;2023-06-26T07:06:21;99095.91;;;23.70;55.08
77235;BME280;66253;50.526;14.974;2023-06-26T07:08:49;99093.20;;;23.75;54.68
77235;BME280;66253;50.526;14.974;2023-06-26T07:11:17;99090.96;;;23.83;54.57
77235;BME280;66253;50.526;14.974;2023-06-26T07:13:45;99090.68;;;23.96;54.94
77235;BME280;66253;50.526;14.974;2023-06-26T07:16:13;99084.90;;;24.11;54.81
77235;BME280;66253;50.526;14.974;2023-06-26T07:18:42;99086.34;;;24.28;54.83
77235;BME280;66253;50.526;14.974;2023-06-26T07:21:10;99083.06;;;24.41;53.37
77235;BME280;66253;50.526;14.974;2023-06-26T07:23:38;99079.34;;;24.45;52.34
77235;BME280;66253;50.526;14.974;2023-06-26T07:26:06;99079.54;;;24.52;52.94
77235;BME280;66253;50.526;14.974;2023-06-26T07:28:35;99080.35;;;24.63;52.15
77235;BME280;66253;50.526;14.974;2023-06-26T07:31:03;99082.00;;;24.68;51.96
77235;BME280;66253;50.526;14.974;2023-06-26T07:33:31;99076.81;;;24.78;52.51
77235;BME280;66253;50.526;14.974;2023-06-26T07:35:59;99073.48;;;24.96;52.58
77235;BME280;66253;50.526;14.974;2023-06-26T07:38:28;99066.18;;;25.15;52.46
77235;BME280;66253;50.526;14.974;2023-06-26T07:40:56;99066.09;;;25.32;51.96
77235;BME280;66253;50.526;14.974;2023-06-26T07:43:24;99071.02;;;25.46;51.25
77235;BME280;66253;50.526;14.974;2023-06-26T07:45:52;99072.11;;;25.54;49.76
77235;BME280;66253;50.526;14.974;2023-06-26T07:48:20;99068.63;;;25.50;50.68
77235;BME280;66253;50.526;14.974;2023-06-26T07:50:49;99069.44;;;25.56;50.31
77235;BME280;66253;50.526;14.974;2023-06-26T07:53:17;99064.31;;;25.64;51.17
77235;BME280;66253;50.526;14.974;2023-06-26T07:55:45;99060.41;;;25.82;51.35
77235;BME280;66253;50.526;14.974;2023-06-26T07:58:14;99060.46;;;26.00;49.53
77235;BME280;66253;50.526;14.974;2023-06-26T08:00:42;99061.76;;;26.14;49.67
77235;BME280;66253;50.526;14.974;2023-06-26T08:03:10;99064.80;;;26.31;49.20
77235;BME280;66253;50.526;14.974;2023-06-26T08:05:39;99062.42;;;26.48;48.23
77235;BME280;66253;50.526;14.974;2023-06-26T08:08:07;99060.56;;;26.64;48.86
77235;BME280;66253;50.526;14.974;2023-06-26T08:10:35;99058.21;;;26.81;48.42
77235;BME280;66253;50.526;14.974;2023-06-26T08:13:03;99059.09;;;26.95;47.85
77235;BME280;66253;50.526;14.974;2023-06-26T08:15:31;99058.13;;;27.08;47.57
77235;BME280;66253;50.526;14.974;2023-06-26T08:18:00;99057.83;;;27.20;47.66
77235;BME280;66253;50.526;14.974;2023-06-26T08:20:28;99059.05;;;27.34;48.00
77235;BME280;66253;50.526;14.974;2023-06-26T08:22:56;99058.98;;;27.47;47.63
77235;BME280;66253;50.526;14.974;2023-06-26T08:25:24;99052.62;;;27.59;46.62
77235;BME280;66253;50.526;14.974;2023-06-26T08:27:52;99047.64;;;27.62;45.53
77235;BME280;66253;50.526;14.974;2023-06-26T08:30:21;99048.59;;;27.67;45.74
77235;BME280;66253;50.526;14.974;2023-06-26T08:32:50;99045.27;;;27.72;45.86
77235;BME280;66253;50.526;14.974;2023-06-26T08:35:18;99041.40;;;27.81;46.39
77235;BME280;66253;50.526;14.974;2023-06-26T08:37:46;99047.78;;;27.88;45.13
77235;BME280;66253;50.526;14.974;2023-06-26T08:40:17;99040.58;;;27.90;45.17
77235;BME280;66253;50.526;14.974;2023-06-26T08:42:46;99040.59;;;28.02;45.54
77235;BME280;66253;50.526;14.974;2023-06-26T08:45:14;99038.27;;;28.11;44.92
77235;BME280;66253;50.526;14.974;2023-06-26T08:47:42;99035.95;;;28.19;45.17
77235;BME280;66253;50.526;14.974;2023-06-26T08:50:10;99034.52;;;28.34;44.49
77235;BME280;66253;50.526;14.974;2023-06-26T08:52:40;99029.92;;;28.45;42.86
77235;BME280;66253;50.526;14.974;2023-06-26T08:55:10;99026.41;;;28.48;43.07
77235;BME280;66253;50.526;14.974;2023-06-26T08:57:40;99027.75;;;28.47;41.87
77235;BME280;66253;50.526;14.974;2023-06-26T09:00:12;99024.67;;;28.49;42.23
77235;BME280;66253;50.526;14.974;2023-06-26T09:02:41;99020.73;;;28.52;42.56
77235;BME280;66253;50.526;14.974;2023-06-26T09:05:09;99015.14;;;28.51;40.94
77235;BME280;66253;50.526;14.974;2023-06-26T09:07:38;99014.06;;;28.32;41.03
77235;BME280;66253;50.526;14.974;2023-06-26T09:10:07;99006.90;;;28.20;41.81
77235;BME280;66253;50.526;14.974;2023-06-26T09:12:36;99007.61;;;28.28;42.21
77235;BME280;66253;50.526;14.974;2023-06-26T09:15:06;99007.29;;;28.40;42.97
77235;BME280;66253;50.526;14.974;2023-06-26T09:17:39;99006.05;;;28.54;42.12
77235;BME280;66253;50.526;14.974;2023-06-26T09:20:09;99003.03;;;28.58;41.63
77235;BME280;66253;50.526;14.974;2023-06-26T09:22:40;99004.53;;;28.57;41.83
77235;BME280;66253;50.526;14.974;2023-06-26T09:25:09;99007.49;;;28.57;42.50
77235;BME280;66253;50.526;14.974;2023-06-26T09:27:38;99003.63;;;28.65;42.04
77235;BME280;66253;50.526;14.974;2023-06-26T09:30:08;99004.63;;;28.77;42.15
77235;BME280;66253;50.526;14.974;2023-06-26T09:32:36;98995.84;;;28.93;42.46
77235;BME280;66253;50.526;14.974;2023-06-26T09:35:06;98986.15;;;29.07;41.62
77235;BME280;66253;50.526;14.974;2023-06-26T09:37:35;98989.66;;;29.19;41.09
77235;BME280;66253;50.526;14.974;2023-06-26T09:40:04;98987.08;;;29.29;41.27
77235;BME280;66253;50.526;14.974;2023-06-26T09:42:33;98982.64;;;29.44;41.11
77235;BME280;66253;50.526;14.974;2023-06-26T09:45:01;98986.52;;;29.59;40.90
77235;BME280;66253;50.526;14.974;2023-06-26T09:47:31;98986.06;;;29.74;39.81
77235;BME280;66253;50.526;14.974;2023-06-26T09:49:59;98976.84;;;29.78;39.36
77235;BME280;66253;50.526;14.974;2023-06-26T09:52:28;98973.70;;;29.74;38.29
77235;BME280;66253;50.526;14.974;2023-06-26T09:55:08;98973.08;;;29.67;38.74
77235;BME280;66253;50.526;14.974;2023-06-26T09:57:37;98973.99;;;29.78;40.10
77235;BME280;66253;50.526;14.974;2023-06-26T10:00:04;98976.27;;;29.93;38.85
77235;BME280;66253;50.526;14.974;2023-06-26T10:02:33;98967.83;;;30.04;39.26
77235;BME280;66253;50.526;14.974;2023-06-26T10:05:01;98962.80;;;30.16;38.36
77235;BME280;66253;50.526;14.974;2023-06-26T10:07:29;98961.89;;;30.20;38.17
77235;BME280;66253;50.526;14.974;2023-06-26T10:09:57;98960.73;;;30.26;38.21
77235;BME280;66253;50.526;14.974;2023-06-26T10:12:26;98957.85;;;30.36;39.00
77235;BME280;66253;50.526;14.974;2023-06-26T10:14:57;98950.67;;;30.53;38.82
77235;BME280;66253;50.526;14.974;2023-06-26T10:17:27;98947.79;;;30.66;37.75
77235;BME280;66253;50.526;14.974;2023-06-26T10:19:56;98944.40;;;30.71;37.56
77235;BME280;66253;50.526;14.974;2023-06-26T10:22:29;98942.94;;;30.79;37.94
77235;BME280;66253;50.526;14.974;2023-06-26T10:25:00;98944.14;;;30.86;37.23
77235;BME280;66253;50.526;14.974;2023-06-26T10:27:32;98940.11;;;30.92;36.99
77235;BME280;66253;50.526;14.974;2023-06-26T10:30:05;98932.24;;;30.97;36.72
77235;BME280;66253;50.526;14.974;2023-06-26T10:32:34;98927.55;;;30.99;36.99
77235;BME280;66253;50.526;14.974;2023-06-26T10:35:05;98925.41;;;31.07;37.15
77235;BME280;66253;50.526;14.974;2023-06-26T10:37:46;98919.13;;;31.13;35.97
77235;BME280;66253;50.526;14.974;2023-06-26T10:40:24;98920.80;;;31.21;36.17
77235;BME280;66253;50.526;14.974;2023-06-26T10:43:06;98914.88;;;31.28;36.00
77235;BME280;66253;50.526;14.974;2023-06-26T10:45:35;98917.56;;;31.37;35.60
77235;BME280;66253;50.526;14.974;2023-06-26T10:48:04;98910.34;;;31.41;35.09
77235;BME280;66253;50.526;14.974;2023-06-26T10:50:32;98911.17;;;31.40;35.87
77235;BME280;66253;50.526;14.974;2023-06-26T10:53:16;98910.81;;;31.40;34.64
77235;BME280;66253;50.526;14.974;2023-06-26T10:55:51;98911.90;;;31.46;35.57
77235;BME280;66253;50.526;14.974;2023-06-26T10:58:33;98904.21;;;31.55;34.88
77235;BME280;66253;50.526;14.974;2023-06-26T11:01:19;98903.56;;;31.64;35.42
77235;BME280;66253;50.526;14.974;2023-06-26T11:03:50;98899.52;;;31.74;35.09
77235;BME280;66253;50.526;14.974;2023-06-26T11:06:28;98896.21;;;31.81;35.01
77235;BME280;66253;50.526;14.974;2023-06-26T11:09:05;98900.12;;;31.87;34.49
77235;BME280;66253;50.526;14.974;2023-06-26T11:11:58;98892.59;;;31.91;34.27
77235;BME280;66253;50.526;14.974;2023-06-26T11:14:27;98891.11;;;31.94;34.21
77235;BME280;66253;50.526;14.974;2023-06-26T11:16:56;98886.67;;;31.96;33.52
77235;BME280;66253;50.526;14.974;2023-06-26T11:19:27;98880.84;;;31.94;33.80
77235;BME280;66253;50.526;14.974;2023-06-26T11:21:59;98881.73;;;31.94;34.02
77235;BME280;66253;50.526;14.974;2023-06-26T11:24:27;98880.54;;;31.97;33.63
77235;BME280;66253;50.526;14.974;2023-06-26T11:27:01;98873.44;;;31.93;33.49
77235;BME280;66253;50.526;14.974;2023-06-26T11:29:29;98873.64;;;31.89;33.93
77235;BME280;66253;50.526;14.974;2023-06-26T11:32:04;98873.54;;;31.94;33.67
77235;BME280;66253;50.526;14.974;2023-06-26T11:34:38;98867.15;;;32.00;34.26
77235;BME280;66253;50.526;14.974;2023-06-26T11:37:06;98868.71;;;32.12;34.21
77235;BME280;66253;50.526;14.974;2023-06-26T11:39:35;98865.60;;;32.19;33.75
77235;BME280;66253;50.526;14.974;2023-06-26T11:42:06;98865.05;;;32.28;34.14
77235;BME280;66253;50.526;14.974;2023-06-26T11:44:41;98864.16;;;32.37;33.54
77235;BME280;66253;50.526;14.974;2023-06-26T11:47:14;98866.95;;;32.36;33.66
77235;BME280;66253;50.526;14.974;2023-06-26T11:49:44;98869.79;;;32.35;33.84
77235;BME280;66253;50.526;14.974;2023-06-26T11:52:13;98862.54;;;32.33;33.56
77235;BME280;66253;50.526;14.974;2023-06-26T11:54:42;98854.98;;;32.32;33.47
77235;BME280;66253;50.526;14.974;2023-06-26T11:57:14;98854.11;;;32.30;32.91
77235;BME280;66253;50.526;14.974;2023-06-26T11:59:43;98855.13;;;32.28;32.98
77235;BME280;66253;50.526;14.974;2023-06-26T12:02:13;98847.22;;;32.30;32.62
77235;BME280;66253;50.526;14.974;2023-06-26T12:04:43;98846.95;;;32.35;33.03
77235;BME280;66253;50.526;14.974;2023-06-26T12:07:12;98844.13;;;32.42;32.65
77235;BME280;66253;50.526;14.974;2023-06-26T12:09:39;98845.16;;;32.46;32.35
77235;BME280;66253;50.526;14.974;2023-06-26T12:12:10;98840.55;;;32.46;32.65
77235;BME280;66253;50.526;14.974;2023-06-26T12:14:38;98835.40;;;32.48;32.84
77235;BME280;66253;50.526;14.974;2023-06-26T12:17:10;98828.05;;;32.50;32.97
77235;BME280;66253;50.526;14.974;2023-06-26T12:19:43;98828.95;;;32.47;32.96
77235;BME280;66253;50.526;14.974;2023-06-26T12:22:11;98827.14;;;32.43;32.61
77235;BME280;66253;50.526;14.974;2023-06-26T12:24:40;98821.73;;;32.34;32.73
77235;BME280;66253;50.526;14.974;2023-06-26T12:27:10;98821.45;;;32.24;32.75
77235;BME280;66253;50.526;14.974;2023-06-26T12:29:45;98815.01;;;32.15;32.89
77235;BME280;66253;50.526;14.974;2023-06-26T12:32:14;98811.73;;;32.01;32.39
77235;BME280;66253;50.526;14.974;2023-06-26T12:34:46;98810.79;;;31.89;32.55
77235;BME280;66253;50.526;14.974;2023-06-26T12:37:15;98814.85;;;31.82;33.61
77235;BME280;66253;50.526;14.974;2023-06-26T12:39:50;98811.20;;;31.77;33.51
77235;BME280;66253;50.526;14.974;2023-06-26T12:42:20;98812.36;;;31.74;33.04
77235;BME280;66253;50.526;14.974;2023-06-26T12:44:49;98807.37;;;31.71;32.90
77235;BME280;66253;50.526;14.974;2023-06-26T12:47:24;98803.52;;;31.65;32.61
77235;BME280;66253;50.526;14.974;2023-06-26T12:49:53;98800.98;;;31.54;32.67
77235;BME280;66253;50.526;14.974;2023-06-26T12:52:22;98798.92;;;31.47;32.87
77235;BME280;66253;50.526;14.974;2023-06-26T12:54:53;98794.44;;;31.41;32.89
77235;BME280;66253;50.526;14.974;2023-06-26T12:57:22;98792.84;;;31.35;33.53
77235;BME280;66253;50.526;14.974;2023-06-26T12:59:50;98792.92;;;31.28;33.51
77235;BME280;66253;50.526;14.974;2023-06-26T13:02:18;98790.02;;;31.22;33.85
77235;BME280;66253;50.526;14.974;2023-06-26T13:04:46;98783.05;;;31.15;32.98